KHKA/HKA METAR and TAF weather

Enter ICAO airport designator
Station Type Date Time Source
KHKA METAR 2022/01/27 22:53 UTC NOAA

KHKA 272253Z AUTO 22004KT 10SM OVC090 03/M07 A3026 RMK AO2 SLP250 T00331067 $


Station Type Date Time Source
KHKA Decoded METAR 2022/01/27 22:53 UTC NOAA

BLYTHEVILLE MUNICIPAL AIRPORT , AR, United States (KHKA) 35-56N 89-50W 78M
Jan 27, 2022 - 05:53 PM EST / 2022.01.27 2253 UTC
Wind: from the SW (220 degrees) at 5 MPH (4 KT):0
Visibility: 10 mile(s):0
Sky conditions: overcast
Temperature: 37.9 F (3.3 C)
Dew Point: 19.9 F (-6.7 C)
Relative Humidity: 47%
Pressure (altimeter): 30.26 in. Hg (1024 hPa)
ob: KHKA 272253Z AUTO 22004KT 10SM OVC090 03/M07 A3026 RMK AO2 SLP250 T00331067
cycle: 23

Station Type Date Time Source
KHKA TAF UTC NOAA

Error!

Example: see airport list